sensor_id;sensor_type;location;lat;lon;timestamp;P1;durP1;ratioP1;P2;durP2;ratioP2
45784;SDS011;31489;51.404;5.474;2022-07-10T00:01:50;4.13;;;1.70;;
45784;SDS011;31489;51.404;5.474;2022-07-10T00:04:16;4.78;;;1.85;;
45784;SDS011;31489;51.404;5.474;2022-07-10T00:06:44;3.67;;;1.50;;
45784;SDS011;31489;51.404;5.474;2022-07-10T00:09:15;5.75;;;1.80;;
45784;SDS011;31489;51.404;5.474;2022-07-10T00:11:43;5.80;;;1.60;;
45784;SDS011;31489;51.404;5.474;2022-07-10T00:14:09;6.43;;;1.85;;
45784;SDS011;31489;51.404;5.474;2022-07-10T00:16:35;5.90;;;1.85;;
45784;SDS011;31489;51.404;5.474;2022-07-10T00:19:01;5.07;;;1.80;;
45784;SDS011;31489;51.404;5.474;2022-07-10T00:21:27;4.10;;;1.80;;
45784;SDS011;31489;51.404;5.474;2022-07-10T00:23:53;5.20;;;2.08;;
45784;SDS011;31489;51.404;5.474;2022-07-10T00:26:18;3.97;;;1.90;;
45784;SDS011;31489;51.404;5.474;2022-07-10T00:28:44;5.90;;;2.22;;
45784;SDS011;31489;51.404;5.474;2022-07-10T00:31:10;5.57;;;2.40;;
45784;SDS011;31489;51.404;5.474;2022-07-10T00:33:35;5.43;;;1.95;;
45784;SDS011;31489;51.404;5.474;2022-07-10T00:36:02;4.75;;;1.55;;
45784;SDS011;31489;51.404;5.474;2022-07-10T00:38:30;3.25;;;1.40;;
45784;SDS011;31489;51.404;5.474;2022-07-10T00:40:55;4.47;;;1.90;;
45784;SDS011;31489;51.404;5.474;2022-07-10T00:43:21;4.80;;;1.83;;
45784;SDS011;31489;51.404;5.474;2022-07-10T00:45:48;5.13;;;1.52;;
45784;SDS011;31489;51.404;5.474;2022-07-10T00:48:14;4.40;;;1.95;;
45784;SDS011;31489;51.404;5.474;2022-07-10T00:50:40;4.30;;;1.60;;
45784;SDS011;31489;51.404;5.474;2022-07-10T00:53:09;6.10;;;1.83;;
45784;SDS011;31489;51.404;5.474;2022-07-10T00:55:35;5.03;;;1.50;;
45784;SDS011;31489;51.404;5.474;2022-07-10T00:58:02;5.63;;;1.52;;
45784;SDS011;31489;51.404;5.474;2022-07-10T01:00:35;3.30;;;1.58;;
45784;SDS011;31489;51.404;5.474;2022-07-10T01:03:02;4.47;;;1.58;;
45784;SDS011;31489;51.404;5.474;2022-07-10T01:05:28;4.30;;;1.23;;
45784;SDS011;31489;51.404;5.474;2022-07-10T01:07:54;2.80;;;1.45;;
45784;SDS011;31489;51.404;5.474;2022-07-10T01:10:19;3.50;;;1.70;;
45784;SDS011;31489;51.404;5.474;2022-07-10T01:12:48;3.97;;;1.60;;
45784;SDS011;31489;51.404;5.474;2022-07-10T01:15:14;3.13;;;1.40;;
45784;SDS011;31489;51.404;5.474;2022-07-10T01:17:40;3.20;;;1.40;;
45784;SDS011;31489;51.404;5.474;2022-07-10T01:20:07;5.80;;;1.90;;
45784;SDS011;31489;51.404;5.474;2022-07-10T01:22:34;7.85;;;1.80;;
45784;SDS011;31489;51.404;5.474;2022-07-10T01:25:01;4.05;;;1.63;;
45784;SDS011;31489;51.404;5.474;2022-07-10T01:27:27;4.93;;;1.98;;
45784;SDS011;31489;51.404;5.474;2022-07-10T01:29:53;4.15;;;1.75;;
45784;SDS011;31489;51.404;5.474;2022-07-10T01:32:19;3.70;;;1.70;;
45784;SDS011;31489;51.404;5.474;2022-07-10T01:34:45;6.43;;;1.90;;
45784;SDS011;31489;51.404;5.474;2022-07-10T01:37:12;7.18;;;2.20;;
45784;SDS011;31489;51.404;5.474;2022-07-10T01:39:38;3.30;;;1.60;;
45784;SDS011;31489;51.404;5.474;2022-07-10T01:42:03;6.55;;;1.73;;
45784;SDS011;31489;51.404;5.474;2022-07-10T01:44:29;4.30;;;2.05;;
45784;SDS011;31489;51.404;5.474;2022-07-10T01:46:55;4.97;;;1.60;;
45784;SDS011;31489;51.404;5.474;2022-07-10T01:49:21;5.55;;;1.80;;
45784;SDS011;31489;51.404;5.474;2022-07-10T01:51:47;6.68;;;1.88;;
45784;SDS011;31489;51.404;5.474;2022-07-10T01:54:13;3.80;;;1.60;;
45784;SDS011;31489;51.404;5.474;2022-07-10T01:56:39;3.65;;;1.60;;
45784;SDS011;31489;51.404;5.474;2022-07-10T01:59:05;4.38;;;1.60;;
45784;SDS011;31489;51.404;5.474;2022-07-10T02:01:30;4.18;;;1.60;;
45784;SDS011;31489;51.404;5.474;2022-07-10T02:03:56;3.33;;;1.58;;
45784;SDS011;31489;51.404;5.474;2022-07-10T02:06:41;2.90;;;1.30;;
45784;SDS011;31489;51.404;5.474;2022-07-10T02:09:07;8.02;;;1.77;;
45784;SDS011;31489;51.404;5.474;2022-07-10T02:11:33;5.88;;;1.60;;
45784;SDS011;31489;51.404;5.474;2022-07-10T02:13:58;2.65;;;1.25;;
45784;SDS011;31489;51.404;5.474;2022-07-10T02:16:24;4.97;;;1.63;;
45784;SDS011;31489;51.404;5.474;2022-07-10T02:18:50;5.00;;;1.73;;
45784;SDS011;31489;51.404;5.474;2022-07-10T02:21:15;2.50;;;1.40;;
45784;SDS011;31489;51.404;5.474;2022-07-10T02:23:41;3.67;;;1.50;;
45784;SDS011;31489;51.404;5.474;2022-07-10T02:26:07;2.90;;;1.50;;
45784;SDS011;31489;51.404;5.474;2022-07-10T02:28:33;3.80;;;1.52;;
45784;SDS011;31489;51.404;5.474;2022-07-10T02:30:58;5.43;;;1.63;;
45784;SDS011;31489;51.404;5.474;2022-07-10T02:33:24;6.15;;;2.15;;
45784;SDS011;31489;51.404;5.474;2022-07-10T02:35:50;6.10;;;1.75;;
45784;SDS011;31489;51.404;5.474;2022-07-10T02:38:16;3.78;;;1.60;;
45784;SDS011;31489;51.404;5.474;2022-07-10T02:40:42;5.18;;;1.50;;
45784;SDS011;31489;51.404;5.474;2022-07-10T02:43:08;4.50;;;2.10;;
45784;SDS011;31489;51.404;5.474;2022-07-10T02:45:33;2.70;;;1.40;;
45784;SDS011;31489;51.404;5.474;2022-07-10T02:47:59;3.60;;;1.50;;
45784;SDS011;31489;51.404;5.474;2022-07-10T02:50:25;5.25;;;1.92;;
45784;SDS011;31489;51.404;5.474;2022-07-10T02:52:51;6.07;;;1.63;;
45784;SDS011;31489;51.404;5.474;2022-07-10T02:55:16;4.20;;;1.65;;
45784;SDS011;31489;51.404;5.474;2022-07-10T02:57:42;5.18;;;1.88;;
45784;SDS011;31489;51.404;5.474;2022-07-10T03:00:08;5.72;;;2.13;;
45784;SDS011;31489;51.404;5.474;2022-07-10T03:02:34;6.13;;;1.73;;
45784;SDS011;31489;51.404;5.474;2022-07-10T03:05:02;6.00;;;1.60;;
45784;SDS011;31489;51.404;5.474;2022-07-10T03:07:28;5.70;;;1.77;;
45784;SDS011;31489;51.404;5.474;2022-07-10T03:09:54;8.52;;;2.10;;
45784;SDS011;31489;51.404;5.474;2022-07-10T03:12:19;5.60;;;2.03;;
45784;SDS011;31489;51.404;5.474;2022-07-10T03:14:45;4.28;;;2.03;;
45784;SDS011;31489;51.404;5.474;2022-07-10T03:17:11;5.25;;;1.90;;
45784;SDS011;31489;51.404;5.474;2022-07-10T03:19:36;5.55;;;1.65;;
45784;SDS011;31489;51.404;5.474;2022-07-10T03:22:03;4.40;;;2.00;;
45784;SDS011;31489;51.404;5.474;2022-07-10T03:24:29;6.18;;;1.95;;
45784;SDS011;31489;51.404;5.474;2022-07-10T03:26:54;5.03;;;2.22;;
45784;SDS011;31489;51.404;5.474;2022-07-10T03:29:20;7.97;;;1.92;;
45784;SDS011;31489;51.404;5.474;2022-07-10T03:31:46;6.20;;;2.10;;
45784;SDS011;31489;51.404;5.474;2022-07-10T03:34:12;3.72;;;1.95;;
45784;SDS011;31489;51.404;5.474;2022-07-10T03:36:37;3.90;;;1.98;;
45784;SDS011;31489;51.404;5.474;2022-07-10T03:39:04;7.80;;;1.73;;
45784;SDS011;31489;51.404;5.474;2022-07-10T03:41:30;6.25;;;2.15;;
45784;SDS011;31489;51.404;5.474;2022-07-10T03:43:55;6.55;;;2.00;;
45784;SDS011;31489;51.404;5.474;2022-07-10T03:46:21;4.45;;;1.60;;
45784;SDS011;31489;51.404;5.474;2022-07-10T03:48:47;3.42;;;1.77;;
45784;SDS011;31489;51.404;5.474;2022-07-10T03:51:12;7.57;;;2.25;;
45784;SDS011;31489;51.404;5.474;2022-07-10T03:53:38;4.88;;;1.80;;
45784;SDS011;31489;51.404;5.474;2022-07-10T03:56:03;4.30;;;2.08;;
45784;SDS011;31489;51.404;5.474;2022-07-10T03:58:31;6.80;;;2.20;;
45784;SDS011;31489;51.404;5.474;2022-07-10T04:00:57;3.58;;;1.80;;
45784;SDS011;31489;51.404;5.474;2022-07-10T04:03:22;5.47;;;1.83;;
45784;SDS011;31489;51.404;5.474;2022-07-10T04:05:48;5.35;;;1.98;;
45784;SDS011;31489;51.404;5.474;2022-07-10T04:08:14;5.70;;;2.00;;
45784;SDS011;31489;51.404;5.474;2022-07-10T04:10:40;4.30;;;1.75;;
45784;SDS011;31489;51.404;5.474;2022-07-10T04:13:06;5.45;;;1.95;;
45784;SDS011;31489;51.404;5.474;2022-07-10T04:15:31;4.53;;;1.90;;
45784;SDS011;31489;51.404;5.474;2022-07-10T04:17:57;8.30;;;2.00;;
45784;SDS011;31489;51.404;5.474;2022-07-10T04:20:23;3.63;;;1.98;;
45784;SDS011;31489;51.404;5.474;2022-07-10T04:22:49;5.72;;;2.25;;
45784;SDS011;31489;51.404;5.474;2022-07-10T04:25:15;4.85;;;1.98;;
45784;SDS011;31489;51.404;5.474;2022-07-10T04:27:41;5.22;;;1.88;;
45784;SDS011;31489;51.404;5.474;2022-07-10T04:30:07;5.35;;;1.80;;
45784;SDS011;31489;51.404;5.474;2022-07-10T04:32:33;6.43;;;2.00;;
45784;SDS011;31489;51.404;5.474;2022-07-10T04:34:59;5.57;;;1.95;;
45784;SDS011;31489;51.404;5.474;2022-07-10T04:37:29;5.68;;;2.10;;
45784;SDS011;31489;51.404;5.474;2022-07-10T04:39:54;5.25;;;2.22;;
45784;SDS011;31489;51.404;5.474;2022-07-10T04:42:20;5.72;;;2.08;;
45784;SDS011;31489;51.404;5.474;2022-07-10T04:44:46;5.35;;;2.25;;
45784;SDS011;31489;51.404;5.474;2022-07-10T04:47:11;4.00;;;1.80;;
45784;SDS011;31489;51.404;5.474;2022-07-10T04:49:37;4.30;;;2.28;;
45784;SDS011;31489;51.404;5.474;2022-07-10T04:52:03;6.43;;;2.25;;
45784;SDS011;31489;51.404;5.474;2022-07-10T04:54:29;5.15;;;2.00;;
45784;SDS011;31489;51.404;5.474;2022-07-10T04:56:55;4.20;;;1.70;;
45784;SDS011;31489;51.404;5.474;2022-07-10T04:59:21;9.18;;;1.90;;
45784;SDS011;31489;51.404;5.474;2022-07-10T05:01:47;5.00;;;2.00;;
45784;SDS011;31489;51.404;5.474;2022-07-10T05:04:12;6.22;;;1.90;;
45784;SDS011;31489;51.404;5.474;2022-07-10T05:06:38;3.28;;;1.67;;
45784;SDS011;31489;51.404;5.474;2022-07-10T05:09:04;5.40;;;2.40;;
45784;SDS011;31489;51.404;5.474;2022-07-10T05:11:30;6.32;;;2.05;;
45784;SDS011;31489;51.404;5.474;2022-07-10T05:13:56;5.47;;;2.10;;
45784;SDS011;31489;51.404;5.474;2022-07-10T05:16:22;10.48;;;2.28;;
45784;SDS011;31489;51.404;5.474;2022-07-10T05:18:48;6.13;;;2.00;;
45784;SDS011;31489;51.404;5.474;2022-07-10T05:21:14;5.05;;;1.85;;
45784;SDS011;31489;51.404;5.474;2022-07-10T05:23:40;5.20;;;2.10;;
45784;SDS011;31489;51.404;5.474;2022-07-10T05:26:06;7.32;;;2.35;;
45784;SDS011;31489;51.404;5.474;2022-07-10T05:28:32;6.05;;;1.90;;
45784;SDS011;31489;51.404;5.474;2022-07-10T05:30:58;3.55;;;1.50;;
45784;SDS011;31489;51.404;5.474;2022-07-10T05:33:24;5.57;;;1.98;;
45784;SDS011;31489;51.404;5.474;2022-07-10T05:35:53;4.93;;;1.65;;
45784;SDS011;31489;51.404;5.474;2022-07-10T05:38:19;5.88;;;1.92;;
45784;SDS011;31489;51.404;5.474;2022-07-10T05:40:45;5.97;;;1.83;;
45784;SDS011;31489;51.404;5.474;2022-07-10T05:43:10;7.63;;;2.40;;
45784;SDS011;31489;51.404;5.474;2022-07-10T05:45:36;5.63;;;1.80;;
45784;SDS011;31489;51.404;5.474;2022-07-10T05:48:02;4.93;;;1.90;;
45784;SDS011;31489;51.404;5.474;2022-07-10T05:50:28;7.90;;;1.63;;
45784;SDS011;31489;51.404;5.474;2022-07-10T05:52:56;4.78;;;2.15;;
45784;SDS011;31489;51.404;5.474;2022-07-10T05:55:22;6.20;;;1.90;;
45784;SDS011;31489;51.404;5.474;2022-07-10T05:57:48;6.47;;;1.92;;
45784;SDS011;31489;51.404;5.474;2022-07-10T06:00:15;5.63;;;1.92;;
45784;SDS011;31489;51.404;5.474;2022-07-10T06:02:41;5.25;;;1.80;;
45784;SDS011;31489;51.404;5.474;2022-07-10T06:05:07;6.18;;;1.95;;
45784;SDS011;31489;51.404;5.474;2022-07-10T06:07:33;6.85;;;1.60;;
45784;SDS011;31489;51.404;5.474;2022-07-10T06:09:59;7.15;;;1.70;;
45784;SDS011;31489;51.404;5.474;2022-07-10T06:12:25;4.65;;;1.75;;
45784;SDS011;31489;51.404;5.474;2022-07-10T06:14:51;5.38;;;1.95;;
45784;SDS011;31489;51.404;5.474;2022-07-10T06:17:17;5.85;;;1.92;;
45784;SDS011;31489;51.404;5.474;2022-07-10T06:19:42;6.07;;;2.20;;
45784;SDS011;31489;51.404;5.474;2022-07-10T06:22:08;4.68;;;2.10;;
45784;SDS011;31489;51.404;5.474;2022-07-10T06:24:52;5.72;;;2.10;;
45784;SDS011;31489;51.404;5.474;2022-07-10T06:27:18;6.35;;;2.20;;
45784;SDS011;31489;51.404;5.474;2022-07-10T06:29:44;7.07;;;1.58;;
45784;SDS011;31489;51.404;5.474;2022-07-10T06:32:09;8.82;;;2.00;;
45784;SDS011;31489;51.404;5.474;2022-07-10T06:34:35;7.30;;;1.80;;
45784;SDS011;31489;51.404;5.474;2022-07-10T06:37:01;6.05;;;1.42;;
45784;SDS011;31489;51.404;5.474;2022-07-10T06:39:28;4.55;;;1.55;;
45784;SDS011;31489;51.404;5.474;2022-07-10T06:41:58;7.22;;;1.70;;
45784;SDS011;31489;51.404;5.474;2022-07-10T06:44:25;6.43;;;1.75;;
45784;SDS011;31489;51.404;5.474;2022-07-10T06:46:50;5.85;;;1.70;;
45784;SDS011;31489;51.404;5.474;2022-07-10T06:49:35;5.15;;;2.00;;
45784;SDS011;31489;51.404;5.474;2022-07-10T06:52:01;3.60;;;1.38;;
45784;SDS011;31489;51.404;5.474;2022-07-10T06:54:27;4.93;;;1.40;;
45784;SDS011;31489;51.404;5.474;2022-07-10T06:56:53;4.10;;;1.50;;
45784;SDS011;31489;51.404;5.474;2022-07-10T06:59:19;5.70;;;1.83;;
45784;SDS011;31489;51.404;5.474;2022-07-10T07:01:44;5.60;;;1.30;;
45784;SDS011;31489;51.404;5.474;2022-07-10T07:04:10;4.25;;;1.38;;
45784;SDS011;31489;51.404;5.474;2022-07-10T07:06:36;3.75;;;1.50;;
45784;SDS011;31489;51.404;5.474;2022-07-10T07:09:02;5.30;;;1.58;;
45784;SDS011;31489;51.404;5.474;2022-07-10T07:11:27;9.63;;;1.73;;
45784;SDS011;31489;51.404;5.474;2022-07-10T07:13:53;4.38;;;1.55;;
45784;SDS011;31489;51.404;5.474;2022-07-10T07:16:18;5.28;;;1.60;;
45784;SDS011;31489;51.404;5.474;2022-07-10T07:18:52;5.28;;;1.48;;
45784;SDS011;31489;51.404;5.474;2022-07-10T07:21:20;3.33;;;1.50;;
45784;SDS011;31489;51.404;5.474;2022-07-10T07:24:04;4.97;;;1.70;;
45784;SDS011;31489;51.404;5.474;2022-07-10T07:26:31;2.58;;;1.13;;
45784;SDS011;31489;51.404;5.474;2022-07-10T07:28:56;5.45;;;1.27;;
45784;SDS011;31489;51.404;5.474;2022-07-10T07:31:22;5.57;;;1.60;;
45784;SDS011;31489;51.404;5.474;2022-07-10T07:33:48;4.68;;;1.30;;
45784;SDS011;31489;51.404;5.474;2022-07-10T07:36:13;4.75;;;1.52;;
45784;SDS011;31489;51.404;5.474;2022-07-10T07:38:39;6.43;;;1.48;;
45784;SDS011;31489;51.404;5.474;2022-07-10T07:41:05;8.25;;;1.92;;
45784;SDS011;31489;51.404;5.474;2022-07-10T07:43:30;6.43;;;1.65;;
45784;SDS011;31489;51.404;5.474;2022-07-10T07:45:56;5.90;;;1.23;;
45784;SDS011;31489;51.404;5.474;2022-07-10T07:48:22;4.55;;;1.58;;
45784;SDS011;31489;51.404;5.474;2022-07-10T07:50:47;4.88;;;1.77;;
45784;SDS011;31489;51.404;5.474;2022-07-10T07:53:13;6.40;;;1.52;;
45784;SDS011;31489;51.404;5.474;2022-07-10T07:55:39;4.38;;;1.73;;
45784;SDS011;31489;51.404;5.474;2022-07-10T07:58:05;6.25;;;1.80;;
45784;SDS011;31489;51.404;5.474;2022-07-10T08:00:31;4.22;;;1.60;;
45784;SDS011;31489;51.404;5.474;2022-07-10T08:02:57;6.75;;;1.92;;
45784;SDS011;31489;51.404;5.474;2022-07-10T08:05:25;5.25;;;2.00;;
45784;SDS011;31489;51.404;5.474;2022-07-10T08:07:55;7.90;;;1.77;;
45784;SDS011;31489;51.404;5.474;2022-07-10T08:10:23;5.13;;;1.60;;
45784;SDS011;31489;51.404;5.474;2022-07-10T08:12:51;4.63;;;1.40;;
45784;SDS011;31489;51.404;5.474;2022-07-10T08:15:19;5.90;;;1.90;;
45784;SDS011;31489;51.404;5.474;2022-07-10T08:17:49;5.18;;;1.70;;
45784;SDS011;31489;51.404;5.474;2022-07-10T08:20:16;7.68;;;1.75;;
45784;SDS011;31489;51.404;5.474;2022-07-10T08:22:42;5.38;;;1.40;;
45784;SDS011;31489;51.404;5.474;2022-07-10T08:25:08;7.13;;;1.52;;
45784;SDS011;31489;51.404;5.474;2022-07-10T08:27:35;4.53;;;1.60;;
45784;SDS011;31489;51.404;5.474;2022-07-10T08:30:00;6.07;;;1.90;;
45784;SDS011;31489;51.404;5.474;2022-07-10T08:32:26;5.18;;;1.77;;
45784;SDS011;31489;51.404;5.474;2022-07-10T08:34:52;7.10;;;2.22;;
45784;SDS011;31489;51.404;5.474;2022-07-10T08:37:19;7.65;;;1.90;;
45784;SDS011;31489;51.404;5.474;2022-07-10T08:39:48;3.20;;;1.73;;
45784;SDS011;31489;51.404;5.474;2022-07-10T08:42:13;7.90;;;2.00;;
45784;SDS011;31489;51.404;5.474;2022-07-10T08:44:41;5.07;;;1.90;;
45784;SDS011;31489;51.404;5.474;2022-07-10T08:47:07;5.82;;;1.88;;
45784;SDS011;31489;51.404;5.474;2022-07-10T08:49:32;8.05;;;2.30;;
45784;SDS011;31489;51.404;5.474;2022-07-10T08:52:05;5.55;;;2.20;;
45784;SDS011;31489;51.404;5.474;2022-07-10T08:54:37;4.60;;;1.98;;
45784;SDS011;31489;51.404;5.474;2022-07-10T08:57:04;6.05;;;2.33;;
45784;SDS011;31489;51.404;5.474;2022-07-10T08:59:30;7.05;;;1.83;;
45784;SDS011;31489;51.404;5.474;2022-07-10T09:01:57;8.20;;;2.40;;
45784;SDS011;31489;51.404;5.474;2022-07-10T09:04:24;5.60;;;2.38;;
45784;SDS011;31489;51.404;5.474;2022-07-10T09:06:51;4.47;;;2.33;;
45784;SDS011;31489;51.404;5.474;2022-07-10T09:09:18;5.50;;;2.00;;
45784;SDS011;31489;51.404;5.474;2022-07-10T09:11:44;4.57;;;2.45;;
45784;SDS011;31489;51.404;5.474;2022-07-10T09:14:13;4.32;;;2.20;;
45784;SDS011;31489;51.404;5.474;2022-07-10T09:16:49;8.88;;;2.03;;
45784;SDS011;31489;51.404;5.474;2022-07-10T09:21:47;4.38;;;2.00;;
45784;SDS011;31489;51.404;5.474;2022-07-10T09:24:16;7.72;;;2.40;;
45784;SDS011;31489;51.404;5.474;2022-07-10T09:26:47;7.72;;;2.70;;
45784;SDS011;31489;51.404;5.474;2022-07-10T09:29:28;5.47;;;2.25;;
45784;SDS011;31489;51.404;5.474;2022-07-10T09:31:58;4.70;;;2.35;;
45784;SDS011;31489;51.404;5.474;2022-07-10T09:39:53;8.07;;;2.08;;
45784;SDS011;31489;51.404;5.474;2022-07-10T09:42:24;6.07;;;2.17;;
45784;SDS011;31489;51.404;5.474;2022-07-10T09:44:50;8.02;;;2.80;;
45784;SDS011;31489;51.404;5.474;2022-07-10T09:47:25;5.65;;;2.50;;
45784;SDS011;31489;51.404;5.474;2022-07-10T09:49:50;2.97;;;2.00;;
45784;SDS011;31489;51.404;5.474;2022-07-10T09:52:16;5.03;;;2.05;;
45784;SDS011;31489;51.404;5.474;2022-07-10T09:54:44;3.60;;;1.77;;
45784;SDS011;31489;51.404;5.474;2022-07-10T09:57:11;7.07;;;1.95;;
45784;SDS011;31489;51.404;5.474;2022-07-10T09:59:40;3.40;;;1.92;;
45784;SDS011;31489;51.404;5.474;2022-07-10T10:02:06;3.45;;;1.58;;
45784;SDS011;31489;51.404;5.474;2022-07-10T10:04:36;2.75;;;1.83;;
45784;SDS011;31489;51.404;5.474;2022-07-10T10:07:03;4.22;;;1.52;;
45784;SDS011;31489;51.404;5.474;2022-07-10T10:12:07;5.70;;;2.28;;
45784;SDS011;31489;51.404;5.474;2022-07-10T10:14:41;6.35;;;2.03;;
45784;SDS011;31489;51.404;5.474;2022-07-10T10:17:07;7.55;;;2.10;;
45784;SDS011;31489;51.404;5.474;2022-07-10T10:19:33;4.85;;;1.90;;
45784;SDS011;31489;51.404;5.474;2022-07-10T10:22:18;2.92;;;1.58;;
45784;SDS011;31489;51.404;5.474;2022-07-10T10:24:44;3.50;;;1.50;;
45784;SDS011;31489;51.404;5.474;2022-07-10T10:27:11;6.03;;;1.65;;
45784;SDS011;31489;51.404;5.474;2022-07-10T10:29:37;5.13;;;1.50;;
45784;SDS011;31489;51.404;5.474;2022-07-10T10:32:04;3.88;;;1.85;;
45784;SDS011;31489;51.404;5.474;2022-07-10T10:37:05;4.90;;;1.70;;
45784;SDS011;31489;51.404;5.474;2022-07-10T10:39:42;3.72;;;1.50;;
45784;SDS011;31489;51.404;5.474;2022-07-10T10:42:34;3.40;;;1.50;;
45784;SDS011;31489;51.404;5.474;2022-07-10T10:48:11;6.75;;;1.75;;
45784;SDS011;31489;51.404;5.474;2022-07-10T10:53:17;4.30;;;1.55;;
45784;SDS011;31489;51.404;5.474;2022-07-10T10:58:25;4.45;;;1.60;;
45784;SDS011;31489;51.404;5.474;2022-07-10T11:01:05;5.20;;;2.00;;
45784;SDS011;31489;51.404;5.474;2022-07-10T11:06:51;3.58;;;1.70;;
45784;SDS011;31489;51.404;5.474;2022-07-10T11:09:31;1.98;;;1.40;;
45784;SDS011;31489;51.404;5.474;2022-07-10T11:12:04;2.38;;;1.52;;
45784;SDS011;31489;51.404;5.474;2022-07-10T11:14:32;2.92;;;1.58;;
45784;SDS011;31489;51.404;5.474;2022-07-10T11:17:02;4.82;;;1.88;;
45784;SDS011;31489;51.404;5.474;2022-07-10T11:19:29;3.03;;;1.60;;
45784;SDS011;31489;51.404;5.474;2022-07-10T11:21:58;2.70;;;1.52;;
45784;SDS011;31489;51.404;5.474;2022-07-10T11:27:26;4.72;;;1.60;;
45784;SDS011;31489;51.404;5.474;2022-07-10T11:29:59;3.75;;;1.52;;
45784;SDS011;31489;51.404;5.474;2022-07-10T11:32:26;3.35;;;1.58;;
45784;SDS011;31489;51.404;5.474;2022-07-10T11:34:53;1.90;;;1.45;;
45784;SDS011;31489;51.404;5.474;2022-07-10T11:37:19;4.00;;;1.73;;
45784;SDS011;31489;51.404;5.474;2022-07-10T11:39:45;3.65;;;1.40;;
45784;SDS011;31489;51.404;5.474;2022-07-10T11:42:11;5.40;;;1.80;;
45784;SDS011;31489;51.404;5.474;2022-07-10T11:44:37;5.50;;;1.65;;
45784;SDS011;31489;51.404;5.474;2022-07-10T11:47:03;5.22;;;1.90;;
45784;SDS011;31489;51.404;5.474;2022-07-10T11:49:30;3.72;;;1.60;;
45784;SDS011;31489;51.404;5.474;2022-07-10T11:52:00;3.20;;;1.77;;
45784;SDS011;31489;51.404;5.474;2022-07-10T11:54:27;4.03;;;1.73;;
45784;SDS011;31489;51.404;5.474;2022-07-10T11:56:53;4.18;;;1.50;;
45784;SDS011;31489;51.404;5.474;2022-07-10T11:59:25;2.25;;;1.30;;
45784;SDS011;31489;51.404;5.474;2022-07-10T12:01:53;2.78;;;1.27;;
45784;SDS011;31489;51.404;5.474;2022-07-10T12:04:20;5.75;;;1.20;;
45784;SDS011;31489;51.404;5.474;2022-07-10T12:06:53;2.60;;;1.60;;
45784;SDS011;31489;51.404;5.474;2022-07-10T12:09:20;3.08;;;1.05;;
45784;SDS011;31489;51.404;5.474;2022-07-10T12:12:03;3.08;;;1.10;;
45784;SDS011;31489;51.404;5.474;2022-07-10T12:14:30;3.28;;;1.13;;
45784;SDS011;31489;51.404;5.474;2022-07-10T12:16:57;2.67;;;1.30;;
45784;SDS011;31489;51.404;5.474;2022-07-10T12:19:25;4.25;;;1.50;;
45784;SDS011;31489;51.404;5.474;2022-07-10T12:21:52;2.58;;;1.13;;
45784;SDS011;31489;51.404;5.474;2022-07-10T12:24:19;10.70;;;1.40;;
45784;SDS011;31489;51.404;5.474;2022-07-10T12:26:46;3.08;;;1.10;;
45784;SDS011;31489;51.404;5.474;2022-07-10T12:29:25;3.95;;;1.58;;
45784;SDS011;31489;51.404;5.474;2022-07-10T12:31:56;3.13;;;1.27;;
45784;SDS011;31489;51.404;5.474;2022-07-10T12:34:34;4.55;;;1.25;;
45784;SDS011;31489;51.404;5.474;2022-07-10T12:37:07;5.13;;;1.23;;
45784;SDS011;31489;51.404;5.474;2022-07-10T12:39:45;2.67;;;1.27;;
45784;SDS011;31489;51.404;5.474;2022-07-10T12:42:12;2.25;;;1.20;;
45784;SDS011;31489;51.404;5.474;2022-07-10T12:44:43;4.03;;;1.20;;
45784;SDS011;31489;51.404;5.474;2022-07-10T12:47:13;3.15;;;0.90;;
45784;SDS011;31489;51.404;5.474;2022-07-10T12:49:54;2.33;;;1.08;;
45784;SDS011;31489;51.404;5.474;2022-07-10T12:52:25;7.13;;;1.20;;
45784;SDS011;31489;51.404;5.474;2022-07-10T12:55:05;1.25;;;0.80;;
45784;SDS011;31489;51.404;5.474;2022-07-10T12:57:48;6.47;;;1.20;;
45784;SDS011;31489;51.404;5.474;2022-07-10T13:00:17;2.25;;;1.00;;
45784;SDS011;31489;51.404;5.474;2022-07-10T13:10:37;2.60;;;1.08;;
45784;SDS011;31489;51.404;5.474;2022-07-10T13:13:03;2.05;;;0.90;;
45784;SDS011;31489;51.404;5.474;2022-07-10T13:15:29;2.80;;;1.00;;
45784;SDS011;31489;51.404;5.474;2022-07-10T13:17:55;3.55;;;1.15;;
45784;SDS011;31489;51.404;5.474;2022-07-10T13:20:22;2.22;;;0.98;;
45784;SDS011;31489;51.404;5.474;2022-07-10T13:22:47;2.72;;;0.95;;
45784;SDS011;31489;51.404;5.474;2022-07-10T13:25:16;2.15;;;1.05;;
45784;SDS011;31489;51.404;5.474;2022-07-10T13:27:42;2.03;;;0.90;;
45784;SDS011;31489;51.404;5.474;2022-07-10T13:30:09;3.95;;;0.95;;
45784;SDS011;31489;51.404;5.474;2022-07-10T13:32:35;3.72;;;1.10;;
45784;SDS011;31489;51.404;5.474;2022-07-10T13:35:01;3.60;;;1.10;;
45784;SDS011;31489;51.404;5.474;2022-07-10T13:37:26;5.65;;;1.30;;
45784;SDS011;31489;51.404;5.474;2022-07-10T13:39:52;2.50;;;0.80;;
45784;SDS011;31489;51.404;5.474;2022-07-10T13:42:18;2.88;;;1.27;;
45784;SDS011;31489;51.404;5.474;2022-07-10T13:44:44;4.20;;;1.00;;
45784;SDS011;31489;51.404;5.474;2022-07-10T13:47:09;2.65;;;1.10;;
45784;SDS011;31489;51.404;5.474;2022-07-10T13:49:35;1.38;;;0.90;;
45784;SDS011;31489;51.404;5.474;2022-07-10T13:52:02;1.90;;;0.90;;
45784;SDS011;31489;51.404;5.474;2022-07-10T13:54:28;2.45;;;0.90;;
45784;SDS011;31489;51.404;5.474;2022-07-10T13:56:53;3.13;;;1.02;;
45784;SDS011;31489;51.404;5.474;2022-07-10T13:59:19;1.95;;;1.20;;
45784;SDS011;31489;51.404;5.474;2022-07-10T14:01:44;5.32;;;1.30;;
45784;SDS011;31489;51.404;5.474;2022-07-10T14:04:10;3.33;;;1.08;;
45784;SDS011;31489;51.404;5.474;2022-07-10T14:06:37;1.85;;;1.10;;
45784;SDS011;31489;51.404;5.474;2022-07-10T14:09:02;3.75;;;1.02;;
45784;SDS011;31489;51.404;5.474;2022-07-10T14:11:28;3.58;;;1.02;;
45784;SDS011;31489;51.404;5.474;2022-07-10T14:13:54;1.55;;;1.02;;
45784;SDS011;31489;51.404;5.474;2022-07-10T14:16:20;2.30;;;0.95;;
45784;SDS011;31489;51.404;5.474;2022-07-10T14:18:46;1.90;;;1.00;;
45784;SDS011;31489;51.404;5.474;2022-07-10T14:21:11;5.18;;;1.10;;
45784;SDS011;31489;51.404;5.474;2022-07-10T14:23:39;1.23;;;0.90;;
45784;SDS011;31489;51.404;5.474;2022-07-10T14:26:06;4.65;;;1.25;;
45784;SDS011;31489;51.404;5.474;2022-07-10T14:28:32;1.08;;;0.90;;
45784;SDS011;31489;51.404;5.474;2022-07-10T14:31:01;3.42;;;1.13;;
45784;SDS011;31489;51.404;5.474;2022-07-10T14:33:29;3.05;;;1.15;;
45784;SDS011;31489;51.404;5.474;2022-07-10T14:35:56;2.42;;;1.00;;
45784;SDS011;31489;51.404;5.474;2022-07-10T14:38:21;2.15;;;1.02;;
45784;SDS011;31489;51.404;5.474;2022-07-10T14:40:47;2.85;;;1.00;;
45784;SDS011;31489;51.404;5.474;2022-07-10T14:43:13;2.30;;;1.10;;
45784;SDS011;31489;51.404;5.474;2022-07-10T14:45:38;2.88;;;1.05;;
45784;SDS011;31489;51.404;5.474;2022-07-10T14:48:04;0.80;;;0.75;;
45784;SDS011;31489;51.404;5.474;2022-07-10T14:50:30;1.75;;;0.82;;
45784;SDS011;31489;51.404;5.474;2022-07-10T14:52:57;1.75;;;0.98;;
45784;SDS011;31489;51.404;5.474;2022-07-10T14:55:23;2.65;;;1.27;;
45784;SDS011;31489;51.404;5.474;2022-07-10T14:57:49;2.85;;;1.25;;
45784;SDS011;31489;51.404;5.474;2022-07-10T15:00:14;4.10;;;1.17;;
45784;SDS011;31489;51.404;5.474;2022-07-10T15:02:43;3.25;;;1.20;;
45784;SDS011;31489;51.404;5.474;2022-07-10T15:05:09;3.13;;;1.08;;
45784;SDS011;31489;51.404;5.474;2022-07-10T15:07:35;3.95;;;1.60;;
45784;SDS011;31489;51.404;5.474;2022-07-10T15:10:00;2.55;;;1.05;;
45784;SDS011;31489;51.404;5.474;2022-07-10T15:12:26;1.75;;;1.20;;
45784;SDS011;31489;51.404;5.474;2022-07-10T15:14:52;2.60;;;1.17;;
45784;SDS011;31489;51.404;5.474;2022-07-10T15:17:18;1.70;;;1.20;;
45784;SDS011;31489;51.404;5.474;2022-07-10T15:19:44;2.42;;;1.20;;
45784;SDS011;31489;51.404;5.474;2022-07-10T15:22:10;2.78;;;1.40;;
45784;SDS011;31489;51.404;5.474;2022-07-10T15:24:36;3.58;;;1.23;;